Time;durP1;ratioP1;P1;durP2;ratioP2;P2;SDS_P1;SDS_P2;PMS_P1;PMS_P2;Temp;Humidity;BMP_temperature;BMP_pressure;BME280_temperature;BME280_humidity;BME280_pressure;Samples;Min_cycle;Max_cycle;Signal;HPM_P1;HPM_P2
2023/04/27 00:00:38;;;;;;;8.73;5.50;;;;;;;11.78;87.23;99559.25;5109086;28;20056;-31
2023/04/27 00:03:04;;;;;;;6.78;4.32;;;;;;;11.76;85.86;99556.00;5108762;28;20127;-33
2023/04/27 00:05:37;;;;;;;7.03;4.85;;;;;;;11.80;87.94;99572.38;5108920;28;20397;-32
2023/04/27 00:08:06;;;;;;;6.20;4.45;;;;;;;11.85;85.91;99572.47;5108559;28;20043;-32
2023/04/27 00:10:32;;;;;;;6.53;4.43;;;;;;;11.88;85.97;99577.31;5108391;28;20070;-32
2023/04/27 00:12:58;;;;;;;7.18;5.13;;;;;;;11.68;87.89;99553.72;5108510;28;20023;-31
2023/04/27 00:15:23;;;;;;;9.88;5.53;;;;;;;11.79;90.16;99584.09;5108818;28;20028;-32
2023/04/27 00:17:49;;;;;;;8.75;5.20;;;;;;;11.78;92.58;99585.16;5108340;28;20028;-31
2023/04/27 00:20:14;;;;;;;7.90;5.60;;;;;;;11.64;96.53;99593.44;5108539;28;20497;-31
2023/04/27 00:22:40;;;;;;;8.50;5.95;;;;;;;11.19;100.00;99596.78;5108614;28;20032;-31
2023/04/27 00:25:06;;;;;;;8.70;5.90;;;;;;;11.29;100.00;99588.19;5108582;28;20027;-32
2023/04/27 00:27:32;;;;;;;9.27;6.53;;;;;;;11.02;100.00;99590.56;5108148;28;20477;-32
2023/04/27 00:29:57;;;;;;;8.40;6.03;;;;;;;11.23;100.00;99589.94;5108106;28;20524;-31
2023/04/27 00:32:22;;;;;;;10.77;6.85;;;;;;;11.29;100.00;99576.72;5108014;28;20799;-34
2023/04/27 00:34:48;;;;;;;8.32;6.15;;;;;;;11.46;100.00;99593.59;5108488;28;20024;-31
2023/04/27 00:37:13;;;;;;;9.25;5.90;;;;;;;11.59;100.00;99603.22;5108232;28;20054;-31
2023/04/27 00:39:39;;;;;;;7.80;5.35;;;;;;;11.62;97.32;99592.84;5108142;28;20028;-32
2023/04/27 00:42:05;;;;;;;8.57;5.90;;;;;;;11.69;95.83;99602.59;5108194;28;20774;-31
2023/04/27 00:44:30;;;;;;;7.78;5.20;;;;;;;11.59;99.05;99603.22;5107879;28;20059;-31
2023/04/27 00:46:57;;;;;;;7.90;5.57;;;;;;;11.58;99.79;99602.38;5107445;28;20149;-31
2023/04/27 00:49:25;;;;;;;7.68;5.65;;;;;;;11.62;100.00;99614.22;5117642;27;20526;-32
2023/04/27 00:51:50;;;;;;;8.02;5.60;;;;;;;11.44;100.00;99614.38;5128667;27;20592;-31
2023/04/27 00:54:18;;;;;;;8.50;5.57;;;;;;;11.45;100.00;99606.16;5128355;27;20096;-31
2023/04/27 00:56:46;;;;;;;7.65;5.65;;;;;;;11.65;100.00;99619.09;5127973;27;20035;-32
2023/04/27 00:59:12;;;;;;;7.60;5.30;;;;;;;11.41;100.00;99606.84;5128103;27;20039;-32
2023/04/27 01:01:37;;;;;;;9.25;5.53;;;;;;;11.14;100.00;99606.56;5128036;27;20031;-31
2023/04/27 01:04:03;;;;;;;7.63;5.30;;;;;;;11.27;100.00;99622.31;5128162;27;20020;-32
2023/04/27 01:06:28;;;;;;;8.05;5.88;;;;;;;11.41;100.00;99633.56;5127945;27;20037;-32
2023/04/27 01:08:54;;;;;;;8.65;5.00;;;;;;;11.54;100.00;99637.81;5127702;27;20058;-31
2023/04/27 01:11:20;;;;;;;7.22;4.97;;;;;;;11.41;100.00;99636.22;5128058;27;20037;-31
2023/04/27 01:13:45;;;;;;;9.63;5.38;;;;;;;11.32;100.00;99641.13;5128212;27;20042;-31
2023/04/27 01:16:11;;;;;;;7.15;4.97;;;;;;;11.65;100.00;99639.66;5128218;27;20039;-31
2023/04/27 01:18:36;;;;;;;8.25;5.30;;;;;;;11.54;99.98;99635.97;5127870;27;20080;-32
2023/04/27 01:21:02;;;;;;;7.75;5.10;;;;;;;11.70;94.19;99646.97;5128176;27;20039;-31
2023/04/27 01:23:27;;;;;;;8.52;5.25;;;;;;;11.76;96.63;99649.50;5127535;27;20031;-34
2023/04/27 01:25:53;;;;;;;7.78;5.63;;;;;;;11.82;97.44;99650.41;5127736;27;20028;-31
2023/04/27 01:28:18;;;;;;;8.38;5.00;;;;;;;11.81;95.15;99654.13;5127531;27;20023;-32
2023/04/27 01:30:43;;;;;;;6.97;4.97;;;;;;;11.83;95.82;99641.38;5127634;27;20076;-33
2023/04/27 01:33:09;;;;;;;7.80;5.30;;;;;;;11.88;97.99;99651.34;5127186;27;20034;-32
2023/04/27 01:35:35;;;;;;;7.85;5.18;;;;;;;11.92;98.29;99663.19;5127663;27;20104;-32
2023/04/27 01:38:01;;;;;;;8.25;5.35;;;;;;;11.85;97.18;99655.31;5127427;27;20030;-32
2023/04/27 01:40:27;;;;;;;7.07;4.95;;;;;;;11.82;97.44;99651.22;5127523;27;20506;-31
2023/04/27 01:42:52;;;;;;;7.45;5.45;;;;;;;11.92;97.78;99664.00;5127443;27;20118;-30
2023/04/27 01:45:17;;;;;;;8.70;5.63;;;;;;;11.90;97.10;99673.31;5127376;27;20464;-33
2023/04/27 01:47:43;;;;;;;6.63;5.05;;;;;;;11.86;94.79;99667.59;5127554;27;20065;-31
2023/04/27 01:50:09;;;;;;;7.63;5.53;;;;;;;11.73;97.08;99673.19;5127542;27;20023;-31
2023/04/27 01:52:34;;;;;;;7.38;5.00;;;;;;;11.75;96.46;99681.78;5127373;27;20031;-32
2023/04/27 01:54:59;;;;;;;7.38;5.40;;;;;;;11.61;97.17;99682.06;5126741;27;20023;-31
2023/04/27 01:57:25;;;;;;;6.93;4.93;;;;;;;11.57;97.02;99694.25;5126947;27;20062;-31
2023/04/27 01:59:51;;;;;;;6.82;5.07;;;;;;;11.54;97.92;99694.72;5127106;27;20055;-31
2023/04/27 02:02:16;;;;;;;7.65;5.38;;;;;;;11.35;100.00;99690.56;5125448;27;20028;-31
2023/04/27 02:04:42;;;;;;;8.02;5.40;;;;;;;11.39;100.00;99689.06;5126945;27;20488;-32
2023/04/27 02:07:07;;;;;;;8.15;5.93;;;;;;;11.23;100.00;99686.03;5126790;27;20027;-31
2023/04/27 02:09:33;;;;;;;8.82;5.72;;;;;;;11.25;100.00;99693.81;5126676;27;20654;-31
2023/04/27 02:11:58;;;;;;;7.90;5.95;;;;;;;11.31;99.94;99702.75;5127056;27;20488;-32
2023/04/27 02:14:23;;;;;;;8.50;6.32;;;;;;;11.39;99.61;99705.88;5126966;27;20198;-31
2023/04/27 02:16:49;;;;;;;8.50;6.15;;;;;;;11.41;98.63;99703.78;5126694;27;20065;-31
2023/04/27 02:19:14;;;;;;;10.20;6.40;;;;;;;11.58;98.71;99709.22;5126659;27;20122;-31
2023/04/27 02:21:40;;;;;;;11.07;5.80;;;;;;;11.35;100.00;99690.56;5126628;27;20024;-31
2023/04/27 02:24:06;;;;;;;11.32;5.88;;;;;;;11.49;100.00;99709.81;5126781;27;20114;-31
2023/04/27 02:26:31;;;;;;;9.68;6.43;;;;;;;11.21;100.00;99704.13;5126319;27;20023;-33
2023/04/27 02:28:57;;;;;;;8.82;6.32;;;;;;;11.33;100.00;99706.81;5126797;27;20533;-31
2023/04/27 02:31:22;;;;;;;9.88;6.78;;;;;;;11.51;100.00;99703.19;5126784;27;20446;-32
2023/04/27 02:33:48;;;;;;;11.02;6.95;;;;;;;11.54;100.00;99712.59;5126473;27;20446;-32
2023/04/27 02:36:13;;;;;;;9.15;6.50;;;;;;;11.52;99.67;99712.81;5126472;27;20443;-33
2023/04/27 02:38:39;;;;;;;8.77;6.47;;;;;;;11.37;99.51;99712.50;5126824;27;20030;-31
2023/04/27 02:41:04;;;;;;;12.55;5.82;;;;;;;11.17;100.00;99718.97;5126496;27;20043;-31
2023/04/27 02:43:30;;;;;;;9.38;6.03;;;;;;;11.33;97.38;99711.34;5126214;27;20015;-31
2023/04/27 02:45:55;;;;;;;13.40;6.90;;;;;;;11.40;97.16;99715.53;5126560;27;20408;-32
2023/04/27 02:48:20;;;;;;;10.02;6.10;;;;;;;11.18;99.90;99693.94;5126074;28;20483;-32
2023/04/27 02:50:46;;;;;;;10.80;6.35;;;;;;;11.19;98.98;99703.53;5126611;28;20102;-32
2023/04/27 02:53:11;;;;;;;11.23;6.50;;;;;;;11.30;99.60;99722.47;5126150;28;20019;-32
2023/04/27 02:55:38;;;;;;;9.70;6.40;;;;;;;11.23;98.31;99722.59;5126540;28;20079;-31
2023/04/27 02:58:03;;;;;;;14.82;6.70;;;;;;;11.26;99.29;99722.94;5125929;27;20106;-33
2023/04/27 03:00:28;;;;;;;8.57;6.03;;;;;;;10.95;100.00;99723.25;5126233;27;20106;-32
2023/04/27 03:02:54;;;;;;;10.88;6.13;;;;;;;10.99;99.44;99732.41;5126145;27;20027;-32
2023/04/27 03:05:20;;;;;;;11.05;6.18;;;;;;;10.96;98.35;99728.34;5126349;27;20088;-32
2023/04/27 03:07:45;;;;;;;11.05;6.07;;;;;;;11.13;96.87;99736.50;5128538;27;20043;-31
2023/04/27 03:10:11;;;;;;;10.27;6.05;;;;;;;11.05;98.80;99732.34;5130104;27;20484;-32
2023/04/27 03:12:36;;;;;;;8.75;6.25;;;;;;;10.84;100.00;99736.34;5130440;27;20023;-35
2023/04/27 03:15:02;;;;;;;9.70;5.90;;;;;;;10.76;100.00;99731.31;5130130;27;20119;-31
2023/04/27 03:17:28;;;;;;;11.13;6.30;;;;;;;11.04;100.00;99730.69;5130342;27;20114;-31
2023/04/27 03:19:54;;;;;;;9.60;6.57;;;;;;;10.95;100.00;99744.59;5130082;27;20511;-32
2023/04/27 03:22:19;;;;;;;9.40;5.95;;;;;;;11.20;100.00;99745.22;5130531;27;20446;-32
2023/04/27 03:24:45;;;;;;;10.80;6.10;;;;;;;10.64;100.00;99741.97;5129881;27;20079;-33
2023/04/27 03:27:10;;;;;;;33.90;17.60;;;;;;;10.76;100.00;99750.00;5130004;27;20038;-33
2023/04/27 03:29:35;;;;;;;10.60;6.55;;;;;;;10.75;100.00;99750.25;5130148;27;20027;-33
2023/04/27 03:32:02;;;;;;;9.60;6.13;;;;;;;10.54;100.00;99748.88;5130083;27;20023;-32
2023/04/27 03:34:28;;;;;;;13.15;6.75;;;;;;;10.73;100.00;99755.81;5130027;27;20080;-32
2023/04/27 03:36:53;;;;;;;11.02;6.22;;;;;;;11.04;100.00;99756.56;5128409;27;20054;-31
2023/04/27 03:39:19;;;;;;;14.77;6.30;;;;;;;11.07;99.37;99761.44;5129804;27;20419;-32
2023/04/27 03:41:45;;;;;;;11.40;6.10;;;;;;;11.12;95.24;99764.25;5129441;27;20059;-32
2023/04/27 03:44:10;;;;;;;9.65;6.10;;;;;;;10.93;98.25;99760.84;5129983;27;20054;-32
2023/04/27 03:46:35;;;;;;;9.45;6.63;;;;;;;10.97;100.00;99766.50;5129660;27;20708;-32
2023/04/27 03:49:01;;;;;;;9.60;6.35;;;;;;;11.18;100.00;99774.00;5130028;27;20075;-31
2023/04/27 03:51:26;;;;;;;11.70;6.53;;;;;;;10.75;100.00;99764.38;5129766;27;20051;-32
2023/04/27 03:53:52;;;;;;;14.07;8.20;;;;;;;10.86;100.00;99771.59;5129490;27;20019;-32
2023/04/27 03:56:17;;;;;;;10.25;6.80;;;;;;;10.90;100.00;99779.97;5129650;27;20027;-32
2023/04/27 03:58:43;;;;;;;10.00;7.38;;;;;;;10.92;100.00;99779.75;5129511;27;20404;-32
2023/04/27 04:01:09;;;;;;;11.30;7.03;;;;;;;10.85;100.00;99785.19;5129562;27;20027;-33
2023/04/27 04:03:35;;;;;;;14.45;7.70;;;;;;;11.11;100.00;99783.94;5129061;27;20049;-32
2023/04/27 04:06:02;;;;;;;10.40;6.68;;;;;;;11.29;100.00;99795.59;5129435;27;20076;-34
2023/04/27 04:08:28;;;;;;;13.32;6.55;;;;;;;11.18;100.00;99792.69;5128988;27;20480;-31
2023/04/27 04:10:55;;;;;;;10.23;6.55;;;;;;;10.98;100.00;99779.63;5129466;27;20019;-32
2023/04/27 04:13:21;;;;;;;10.20;5.90;;;;;;;11.21;95.03;99794.88;5129332;27;20034;-33
2023/04/27 04:15:46;;;;;;;11.13;5.32;;;;;;;10.99;91.62;99780.44;5129129;27;20027;-31
2023/04/27 04:18:11;;;;;;;9.90;4.80;;;;;;;10.94;92.55;99793.66;5128304;27;20019;-32
2023/04/27 04:20:37;;;;;;;7.43;4.22;;;;;;;10.89;90.80;99804.19;5128616;27;20468;-32
2023/04/27 04:23:02;;;;;;;9.85;5.13;;;;;;;10.92;93.23;99812.56;5129175;27;20015;-32
2023/04/27 04:25:28;;;;;;;7.43;4.38;;;;;;;11.18;92.44;99814.03;5116137;27;20036;-33
2023/04/27 04:27:53;;;;;;;9.95;4.18;;;;;;;11.33;94.56;99812.78;5108460;28;20031;-32
2023/04/27 04:30:19;;;;;;;6.95;2.67;;;;;;;11.43;89.56;99829.06;5108337;28;20032;-32
2023/04/27 04:32:44;;;;;;;5.25;2.40;;;;;;;11.67;91.63;99829.88;5108247;28;20484;-32
2023/04/27 04:35:10;;;;;;;4.53;2.22;;;;;;;11.84;91.75;99832.66;5108097;28;20023;-34
2023/04/27 04:37:36;;;;;;;4.63;2.17;;;;;;;12.18;100.00;99824.91;5108019;27;20493;-32
2023/04/27 04:40:07;;;;;;;4.47;2.22;;;;;;;14.00;99.87;99808.78;5107790;28;20039;-33
2023/04/27 04:42:34;;;;;;;7.50;3.83;;;;;;;14.75;85.76;99838.72;5107909;28;20106;-32
2023/04/27 04:45:00;;;;;;;9.13;4.00;;;;;;;15.30;92.54;99836.78;5107773;28;20076;-31
2023/04/27 04:47:25;;;;;;;5.18;3.40;;;;;;;15.21;83.99;99841.84;5105974;27;20031;-31
2023/04/27 04:49:51;;;;;;;6.60;3.15;;;;;;;15.53;86.34;99846.41;5120882;27;20034;-32
2023/04/27 04:52:16;;;;;;;4.75;2.50;;;;;;;15.05;77.17;99846.25;5128394;27;20402;-32
2023/04/27 04:54:42;;;;;;;3.88;2.10;;;;;;;14.60;76.93;99849.25;5128208;27;20027;-32
2023/04/27 04:57:07;;;;;;;4.10;1.70;;;;;;;14.04;77.57;99846.66;5128325;27;20019;-32
2023/04/27 04:59:33;;;;;;;5.43;2.38;;;;;;;14.42;79.41;99848.47;5128208;27;20131;-32
2023/04/27 05:01:59;;;;;;;4.43;1.88;;;;;;;13.75;77.25;99848.63;5128351;27;20038;-32
2023/04/27 05:04:25;;;;;;;9.30;4.30;;;;;;;13.95;83.52;99848.09;5128209;27;20023;-31
2023/04/27 05:06:51;;;;;;;14.27;5.78;;;;;;;13.65;84.05;99838.56;5128451;27;20434;-32
2023/04/27 05:09:17;;;;;;;7.97;3.65;;;;;;;13.82;78.23;99854.63;5127697;27;20054;-32
2023/04/27 05:11:42;;;;;;;4.20;1.95;;;;;;;13.57;80.53;99852.38;5128084;27;20023;-32
2023/04/27 05:14:08;;;;;;;3.65;1.17;;;;;;;13.22;78.31;99850.69;5128073;27;20011;-33
2023/04/27 05:16:33;;;;;;;1.92;1.30;;;;;;;12.89;75.44;99859.44;5128015;27;20023;-32
2023/04/27 05:18:58;;;;;;;3.83;1.38;;;;;;;12.74;77.74;99850.09;5128076;27;20549;-33
2023/04/27 05:21:24;;;;;;;1.30;0.98;;;;;;;13.50;76.35;99854.41;5127637;27;20122;-31
2023/04/27 05:23:49;;;;;;;5.00;1.10;;;;;;;12.81;76.39;99850.78;5127904;27;20027;-31
2023/04/27 05:26:16;;;;;;;2.25;1.23;;;;;;;13.14;78.23;99865.28;5127684;27;20015;-32
2023/04/27 05:28:42;;;;;;;1.83;1.27;;;;;;;13.68;77.80;99864.06;5127793;27;20419;-33
2023/04/27 05:31:07;;;;;;;1.90;1.02;;;;;;;13.51;72.67;99864.88;5126806;27;20023;-33
2023/04/27 05:33:33;;;;;;;1.75;1.20;;;;;;;13.61;73.41;99870.41;5127698;27;20050;-33
2023/04/27 05:35:58;;;;;;;1.73;1.02;;;;;;;13.04;77.18;99868.59;5127366;27;20435;-31
2023/04/27 05:38:24;;;;;;;4.53;1.60;;;;;;;12.96;74.04;99873.53;5127610;27;20143;-33
2023/04/27 05:40:57;;;;;;;9.02;4.20;;;;;;;13.10;74.88;99872.19;5127612;27;20027;-33
2023/04/27 05:43:24;;;;;;;7.30;3.72;;;;;;;13.27;76.08;99878.34;5127244;27;20027;-32
2023/04/27 05:45:50;;;;;;;4.15;1.20;;;;;;;12.73;76.59;99875.22;5127376;27;20046;-31
2023/04/27 05:48:19;;;;;;;4.32;2.33;;;;;;;13.12;77.68;99875.44;5127298;27;20031;-31
2023/04/27 05:50:44;;;;;;;1.40;1.05;;;;;;;12.96;75.94;99881.56;5127341;27;20121;-31
2023/04/27 05:53:10;;;;;;;3.10;1.70;;;;;;;13.04;76.76;99875.81;5127370;27;20110;-32
2023/04/27 05:55:36;;;;;;;2.47;1.30;;;;;;;13.14;77.49;99876.00;5126962;27;20730;-32
2023/04/27 05:58:02;;;;;;;2.28;1.20;;;;;;;13.15;75.78;99888.31;5127222;27;20043;-32
2023/04/27 06:00:28;;;;;;;3.42;1.67;;;;;;;13.32;73.21;99877.69;5127045;27;20478;-31
2023/04/27 06:02:53;;;;;;;3.40;1.55;;;;;;;13.03;72.58;99896.41;5127203;27;20023;-33
2023/04/27 06:05:19;;;;;;;2.42;1.80;;;;;;;13.03;74.55;99871.50;5126747;27;20053;-31
2023/04/27 06:07:44;;;;;;;8.70;4.50;;;;;;;13.10;76.53;99879.38;5126938;27;20516;-33
2023/04/27 06:10:10;;;;;;;2.83;1.70;;;;;;;13.17;75.98;99891.56;5127193;27;20424;-32
2023/04/27 06:12:36;;;;;;;1.95;1.40;;;;;;;13.05;74.20;99893.47;5126862;27;20056;-32
2023/04/27 06:15:06;;;;;;;3.63;1.27;;;;;;;13.04;75.48;99894.56;5126657;27;20034;-31
2023/04/27 06:17:32;;;;;;;3.47;1.77;;;;;;;13.38;75.39;99894.63;5126449;27;20057;-31
2023/04/27 06:19:58;;;;;;;3.05;1.70;;;;;;;13.32;74.68;99896.44;5126725;27;20019;-33
2023/04/27 06:22:24;;;;;;;3.05;1.65;;;;;;;13.17;70.97;99896.13;5126332;27;20035;-31
2023/04/27 06:24:49;;;;;;;1.85;1.50;;;;;;;13.18;71.51;99900.44;5102326;27;20118;-32
2023/04/27 06:27:14;;;;;;;4.45;2.53;;;;;;;13.23;74.87;99893.28;5086487;28;20016;-31
2023/04/27 06:29:40;;;;;;;4.55;1.85;;;;;;;13.55;76.64;99897.34;5085271;28;20062;-32
2023/04/27 06:32:05;;;;;;;2.00;1.40;;;;;;;13.76;69.81;99895.81;5117540;27;20043;-33
2023/04/27 06:34:32;;;;;;;5.72;2.53;;;;;;;13.45;68.43;99876.56;5084112;28;20028;-31
2023/04/27 06:36:58;;;;;;;11.68;4.78;;;;;;;13.65;66.58;99898.34;5085126;28;20077;-31
2023/04/27 06:39:23;;;;;;;14.73;5.47;;;;;;;13.68;65.42;99901.56;5085395;28;20032;-31
2023/04/27 06:41:48;;;;;;;7.97;3.75;;;;;;;13.78;64.08;99904.41;5083720;28;20520;-32
2023/04/27 06:44:14;;;;;;;8.20;4.03;;;;;;;13.64;65.94;99906.59;5085155;28;20636;-32
2023/04/27 06:46:39;;;;;;;9.00;3.50;;;;;;;13.55;65.17;99890.13;5085078;28;20028;-32
2023/04/27 06:49:05;;;;;;;7.97;3.83;;;;;;;13.52;69.58;99904.00;5099520;28;20035;-31
2023/04/27 06:51:30;;;;;;;8.48;4.35;;;;;;;13.89;70.28;99908.88;5115630;28;20031;-31
2023/04/27 06:53:56;;;;;;;5.03;2.83;;;;;;;14.06;63.36;99908.88;5110286;27;20110;-32
2023/04/27 06:56:21;;;;;;;38.85;13.68;;;;;;;13.73;62.42;99894.44;5093961;28;20517;-32
2023/04/27 06:58:47;;;;;;;7.72;2.97;;;;;;;13.59;62.47;99893.94;5084732;28;20036;-31
2023/04/27 07:01:12;;;;;;;5.05;2.67;;;;;;;13.70;66.43;99907.50;5085191;28;20028;-33
2023/04/27 07:03:38;;;;;;;5.65;2.78;;;;;;;13.94;68.33;99911.66;5085092;28;20482;-31
2023/04/27 07:06:03;;;;;;;5.18;1.95;;;;;;;14.06;71.18;99914.25;5085153;28;20024;-32
2023/04/27 07:08:29;;;;;;;7.57;2.95;;;;;;;14.40;71.21;99909.59;5084863;28;20093;-32
2023/04/27 07:10:55;;;;;;;6.80;3.10;;;;;;;14.37;69.17;99914.69;5085090;28;20113;-31
2023/04/27 07:13:20;;;;;;;5.57;2.60;;;;;;;14.21;68.07;99913.66;5085283;28;20067;-31
2023/04/27 07:15:46;;;;;;;4.50;2.80;;;;;;;14.34;70.49;99910.59;5085209;28;20630;-31
2023/04/27 07:18:11;;;;;;;4.55;2.65;;;;;;;14.34;69.66;99909.78;5085087;28;20032;-31
2023/04/27 07:20:37;;;;;;;5.88;2.90;;;;;;;14.31;69.83;99897.69;5084956;28;20031;-33
2023/04/27 07:23:02;;;;;;;5.90;3.28;;;;;;;14.27;66.83;99909.97;5085089;28;20043;-32
2023/04/27 07:25:28;;;;;;;7.40;3.50;;;;;;;14.56;66.74;99917.91;5085381;28;20035;-31
2023/04/27 07:27:53;;;;;;;4.97;3.22;;;;;;;14.65;66.23;99916.44;5084968;28;20024;-31
2023/04/27 07:30:19;;;;;;;6.28;3.78;;;;;;;14.33;70.34;99906.31;5085231;28;20136;-31
2023/04/27 07:32:45;;;;;;;5.75;3.72;;;;;;;14.12;69.61;99901.69;5084941;28;20024;-32
2023/04/27 07:35:12;;;;;;;7.22;3.47;;;;;;;14.11;68.03;99918.88;5085225;28;20028;-31
2023/04/27 07:37:37;;;;;;;5.75;3.78;;;;;;;14.28;69.51;99895.50;5084990;28;20035;-31
2023/04/27 07:40:15;;;;;;;7.70;3.78;;;;;;;14.39;64.67;99913.38;5084915;28;20059;-32
2023/04/27 07:42:41;;;;;;;6.15;3.80;;;;;;;14.95;64.78;99915.16;5084795;28;20028;-31
2023/04/27 07:45:08;;;;;;;7.05;3.80;;;;;;;14.20;66.69;99917.38;5085244;28;20123;-31
2023/04/27 07:47:33;;;;;;;7.28;4.32;;;;;;;14.15;67.80;99915.44;5084816;28;20028;-31
2023/04/27 07:49:59;;;;;;;8.13;3.85;;;;;;;14.56;68.20;99915.22;5085155;28;20631;-32
2023/04/27 07:52:24;;;;;;;6.22;3.97;;;;;;;14.93;61.39;99923.44;5085008;28;20028;-31
2023/04/27 07:54:50;;;;;;;6.45;3.78;;;;;;;15.25;59.89;99923.53;5088752;28;20035;-31
2023/04/27 07:57:16;;;;;;;7.63;4.68;;;;;;;15.00;64.21;99929.47;5088602;28;20036;-31
2023/04/27 07:59:41;;;;;;;7.10;4.28;;;;;;;15.32;60.14;99920.63;5088365;28;20024;-32
2023/04/27 08:02:07;;;;;;;7.53;4.50;;;;;;;15.59;62.74;99922.50;5088505;28;20458;-31
2023/04/27 08:04:32;;;;;;;6.63;3.88;;;;;;;15.75;52.87;99934.22;5088345;28;20020;-31
2023/04/27 08:06:58;;;;;;;6.90;3.75;;;;;;;15.94;55.57;99923.91;5086843;28;20033;-33
2023/04/27 08:09:24;;;;;;;7.38;4.22;;;;;;;15.76;57.51;99933.97;5087365;28;20127;-31
2023/04/27 08:11:49;;;;;;;8.20;3.90;;;;;;;15.97;51.50;99931.44;5088002;28;20115;-32
2023/04/27 08:14:15;;;;;;;9.27;3.97;;;;;;;15.71;57.07;99933.09;5087675;28;20540;-33
2023/04/27 08:16:41;;;;;;;8.00;3.80;;;;;;;15.91;54.74;99937.84;5088241;28;20051;-31
2023/04/27 08:19:08;;;;;;;8.63;4.00;;;;;;;15.71;54.38;99916.97;5088108;28;20028;-32
2023/04/27 08:21:35;;;;;;;8.95;4.22;;;;;;;15.89;56.78;99934.63;5088314;28;20081;-33
2023/04/27 08:24:01;;;;;;;9.13;5.22;;;;;;;15.91;51.85;99932.47;5088345;28;20085;-32
2023/04/27 08:26:26;;;;;;;10.48;5.05;;;;;;;15.64;54.61;99927.94;5088066;28;20020;-32
2023/04/27 08:28:52;;;;;;;9.30;4.80;;;;;;;16.02;56.21;99924.25;5087898;28;20120;-32
2023/04/27 08:31:17;;;;;;;10.30;4.28;;;;;;;15.91;50.03;99919.84;5087647;28;20028;-31
2023/04/27 08:33:42;;;;;;;6.80;3.70;;;;;;;15.53;51.89;99927.03;5088167;28;20112;-30
2023/04/27 08:36:08;;;;;;;8.80;4.00;;;;;;;15.14;55.12;99929.88;5087699;28;20020;-31
2023/04/27 08:38:34;;;;;;;7.47;3.80;;;;;;;15.26;53.70;99918.97;5088037;28;20039;-31
2023/04/27 08:40:59;;;;;;;6.93;3.90;;;;;;;15.89;54.94;99924.66;5087989;28;20429;-31
2023/04/27 08:43:25;;;;;;;8.23;4.20;;;;;;;15.87;61.75;99913.34;5087469;28;20035;-32
2023/04/27 08:45:51;;;;;;;5.75;4.63;;;;;;;16.20;55.78;99914.94;5087883;28;20039;-32
2023/04/27 08:48:17;;;;;;;6.57;4.05;;;;;;;16.76;54.61;99919.78;5087597;28;20039;-32
2023/04/27 08:50:44;;;;;;;9.82;4.07;;;;;;;17.14;50.60;99925.06;5087566;28;20028;-31
2023/04/27 08:53:20;;;;;;;19.55;7.50;;;;;;;16.51;51.58;99919.66;5088594;28;20016;-32
2023/04/27 08:55:46;;;;;;;7.53;3.90;;;;;;;15.89;51.93;99913.09;5102582;27;20038;-31
2023/04/27 08:58:11;;;;;;;8.32;4.03;;;;;;;16.29;52.83;99919.84;5109548;27;20020;-32
2023/04/27 09:00:41;;;;;;;6.85;4.40;;;;;;;16.71;50.86;99914.38;5107375;28;20209;-32
2023/04/27 09:03:17;;;;;;;6.55;3.78;;;;;;;16.60;50.98;99893.88;5107809;28;20032;-30
2023/04/27 09:05:46;;;;;;;7.90;3.72;;;;;;;16.93;50.28;99899.94;5106765;28;20112;-32
2023/04/27 09:08:11;;;;;;;10.52;4.28;;;;;;;16.86;50.74;99909.09;5107471;28;20061;-31
2023/04/27 09:10:44;;;;;;;7.55;4.00;;;;;;;17.39;52.07;99903.56;5107458;27;20028;-31
2023/04/27 09:13:10;;;;;;;8.82;3.60;;;;;;;17.17;48.56;99906.47;5107642;28;20027;-32
2023/04/27 09:15:46;;;;;;;6.50;3.80;;;;;;;17.17;47.21;99908.38;5107135;28;20034;-31
2023/04/27 09:18:22;;;;;;;6.70;4.03;;;;;;;17.41;49.70;99904.09;5107199;28;20603;-32
2023/04/27 09:20:49;;;;;;;6.88;3.83;;;;;;;17.13;51.77;99888.44;5107359;28;20072;-31
2023/04/27 09:23:32;;;;;;;6.97;3.90;;;;;;;17.15;46.15;99899.75;5107142;28;20073;-31
2023/04/27 09:26:08;;;;;;;5.35;3.92;;;;;;;16.84;48.86;99897.78;5107614;28;20024;-32
2023/04/27 09:28:38;;;;;;;6.45;4.20;;;;;;;16.76;49.38;99884.00;5107369;28;20039;-31
2023/04/27 09:31:04;;;;;;;6.68;3.95;;;;;;;16.47;49.62;99881.72;5106757;27;20024;-34
2023/04/27 09:33:32;;;;;;;6.45;3.80;;;;;;;16.89;49.71;99890.78;5107308;28;20122;-34
2023/04/27 09:35:59;;;;;;;6.10;4.07;;;;;;;17.32;50.98;99903.00;5106685;28;20028;-32
2023/04/27 09:38:25;;;;;;;6.30;3.47;;;;;;;17.21;48.67;99891.41;5106489;28;20109;-31
2023/04/27 09:40:52;;;;;;;5.63;3.63;;;;;;;16.93;50.44;99894.56;5107202;28;20039;-31
2023/04/27 09:43:17;;;;;;;8.00;4.35;;;;;;;17.26;50.22;99899.50;5107118;28;20020;-33
2023/04/27 09:45:43;;;;;;;6.15;3.90;;;;;;;17.17;48.34;99895.69;5106966;28;20031;-31
2023/04/27 09:48:10;;;;;;;5.70;3.67;;;;;;;17.40;48.73;99893.56;5106814;28;20024;-31
2023/04/27 09:50:38;;;;;;;6.95;3.95;;;;;;;17.48;46.45;99891.16;5106286;27;20153;-32
2023/04/27 09:53:16;;;;;;;5.47;3.60;;;;;;;17.11;46.67;99877.91;5107204;28;20024;-30
2023/04/27 09:55:44;;;;;;;7.20;3.78;;;;;;;17.33;48.67;99893.03;5106992;28;20024;-31
2023/04/27 09:58:12;;;;;;;;;;;;;;;16.70;45.97;99891.22;5107342;28;20119;-31
2023/04/27 10:00:38;;;;;;;7.60;3.90;;;;;;;16.50;46.64;99891.16;5106465;28;19919;-32
2023/04/27 10:03:13;;;;;;;7.25;3.80;;;;;;;16.24;49.71;99889.16;5106467;28;20028;-31
2023/04/27 10:05:58;;;;;;;9.15;3.92;;;;;;;16.71;48.72;99884.75;5104845;28;20470;-31
2023/04/27 10:08:24;;;;;;;7.43;3.90;;;;;;;16.47;49.92;99887.91;5106402;28;20056;-32
2023/04/27 10:10:52;;;;;;;7.15;3.90;;;;;;;16.90;49.38;99890.53;5106660;28;20080;-31
2023/04/27 10:13:25;;;;;;;7.45;4.13;;;;;;;17.05;51.45;99892.44;5106244;28;20082;-31
2023/04/27 10:15:52;;;;;;;5.63;3.88;;;;;;;17.14;48.60;99893.56;5105623;27;20533;-31
2023/04/27 10:18:36;;;;;;;8.35;4.45;;;;;;;17.48;47.92;99885.75;5106485;28;20285;-31
2023/04/27 10:21:10;;;;;;;8.18;4.32;;;;;;;17.65;47.48;99882.81;5106209;28;20020;-32
2023/04/27 10:23:49;;;;;;;7.70;4.38;;;;;;;17.23;47.30;99878.47;5106192;28;20036;-32
2023/04/27 10:26:25;;;;;;;6.07;3.92;;;;;;;17.19;45.52;99887.34;5106359;28;20016;-30
2023/04/27 10:29:07;;;;;;;5.25;3.58;;;;;;;17.06;45.86;99889.50;5106195;28;20027;-33
2023/04/27 10:31:33;;;;;;;6.85;3.70;;;;;;;17.17;47.16;99900.28;5106333;28;20384;-32
2023/04/27 10:34:09;;;;;;;7.47;4.13;;;;;;;17.17;48.26;99892.22;5105908;28;20133;-31
2023/04/27 10:36:39;;;;;;;6.95;4.28;;;;;;;17.35;47.89;99896.28;5104501;28;20410;-31
2023/04/27 10:39:19;;;;;;;8.70;3.58;;;;;;;16.89;52.59;99893.47;5105727;28;20019;-31
2023/04/27 10:41:55;;;;;;;6.60;3.70;;;;;;;16.79;52.43;99868.09;5106071;28;20538;-32
2023/04/27 10:44:28;;;;;;;7.25;4.50;;;;;;;17.14;58.26;99887.34;5105912;28;20070;-32
2023/04/27 10:46:56;;;;;;;8.27;4.05;;;;;;;17.12;56.92;99881.41;5105872;28;20488;-32
2023/04/27 10:49:22;;;;;;;7.22;4.40;;;;;;;16.63;58.14;99880.72;5105509;28;20530;-31
2023/04/27 10:51:51;;;;;;;7.45;4.20;;;;;;;16.87;60.73;99881.06;5106288;28;20035;-32
2023/04/27 10:54:17;;;;;;;5.63;3.50;;;;;;;16.61;55.37;99887.41;5101835;28;20628;-31
2023/04/27 10:56:43;;;;;;;7.50;4.05;;;;;;;16.55;57.06;99889.28;5106398;28;20600;-32
2023/04/27 10:59:08;;;;;;;7.75;4.10;;;;;;;16.71;56.91;99887.44;5104517;27;20028;-31
2023/04/27 11:01:35;;;;;;;7.50;4.20;;;;;;;16.17;61.40;99882.38;5085445;28;20513;-31
2023/04/27 11:04:01;;;;;;;7.28;4.00;;;;;;;16.14;62.65;99893.63;5085311;28;20032;-32
2023/04/27 11:06:29;;;;;;;8.98;4.00;;;;;;;16.31;60.85;99893.47;5085410;28;20496;-31
2023/04/27 11:08:55;;;;;;;5.45;4.03;;;;;;;16.32;60.63;99885.13;5085218;28;20056;-32
2023/04/27 11:11:21;;;;;;;8.63;4.80;;;;;;;16.25;61.95;99887.25;5085482;28;20057;-32
2023/04/27 11:13:51;;;;;;;7.15;4.10;;;;;;;16.52;61.18;99886.31;5085154;28;20418;-31
2023/04/27 11:16:18;;;;;;;6.78;4.20;;;;;;;16.64;58.96;99892.28;5085034;28;20051;-31
2023/04/27 11:18:44;;;;;;;6.63;4.43;;;;;;;16.39;60.17;99890.28;5085058;28;20024;-31
2023/04/27 11:21:15;;;;;;;6.05;4.10;;;;;;;16.55;61.84;99872.31;5085303;28;20390;-31
2023/04/27 11:23:41;;;;;;;7.25;4.25;;;;;;;16.59;59.45;99884.16;5084878;28;20032;-31
2023/04/27 11:26:21;;;;;;;10.05;4.68;;;;;;;16.53;64.89;99877.97;5084951;28;20079;-31
2023/04/27 11:28:59;;;;;;;6.95;3.97;;;;;;;16.07;60.02;99873.16;5087790;28;20028;-31